createdAt,value
2022-10-01T00:02:08.497Z,15.67
2022-10-01T00:04:37.654Z,15.64
2022-10-01T00:07:09.546Z,15.61
2022-10-01T00:09:37.691Z,15.62
2022-10-01T00:12:05.519Z,15.68
2022-10-01T00:14:33.014Z,15.65
2022-10-01T00:17:00.822Z,15.60
2022-10-01T00:19:28.565Z,15.59
2022-10-01T00:21:55.960Z,15.59
2022-10-01T00:24:23.941Z,15.62
2022-10-01T00:26:51.363Z,15.54
2022-10-01T00:29:18.802Z,15.57
2022-10-01T00:31:46.574Z,15.58
2022-10-01T00:34:15.501Z,15.54
2022-10-01T00:36:43.079Z,15.51
2022-10-01T00:39:12.201Z,15.49
2022-10-01T00:41:40.260Z,15.47
2022-10-01T00:44:36.820Z,15.44
2022-10-01T00:47:35.161Z,15.43
2022-10-01T00:50:23.104Z,15.39
2022-10-01T00:52:55.038Z,15.42
2022-10-01T00:55:28.590Z,15.38
2022-10-01T00:57:56.800Z,15.37
2022-10-01T01:00:25.170Z,15.38
2022-10-01T01:02:52.640Z,15.42
2022-10-01T01:05:20.401Z,15.44
2022-10-01T01:07:50.171Z,15.43
2022-10-01T01:10:23.800Z,15.40
2022-10-01T01:13:24.104Z,15.36
2022-10-01T01:15:55.689Z,15.41
2022-10-01T01:18:31.694Z,15.41
2022-10-01T01:21:14.187Z,15.33
2022-10-01T01:24:06.687Z,15.38
2022-10-01T01:26:42.311Z,15.39
2022-10-01T01:29:30.285Z,15.38
2022-10-01T01:32:03.097Z,15.36
2022-10-01T01:34:32.718Z,15.28
2022-10-01T01:37:12.227Z,15.25
2022-10-01T01:39:46.301Z,15.23
2022-10-01T01:42:24.148Z,15.19
2022-10-01T01:44:54.497Z,15.18
2022-10-01T01:47:24.998Z,15.14
2022-10-01T01:49:53.360Z,15.18
2022-10-01T01:52:20.777Z,15.21
2022-10-01T01:54:50.369Z,15.19
2022-10-01T01:57:20.011Z,15.19
2022-10-01T01:59:47.512Z,15.20
2022-10-01T02:02:20.182Z,15.26
2022-10-01T02:05:00.288Z,15.24
2022-10-01T02:07:36.617Z,15.24
2022-10-01T02:10:34.828Z,15.24
2022-10-01T02:13:08.306Z,15.25
2022-10-01T02:15:55.309Z,15.32
2022-10-01T02:18:34.660Z,15.23
2022-10-01T02:21:20.731Z,15.20
2022-10-01T02:24:05.564Z,15.26
2022-10-01T02:26:36.155Z,15.25
2022-10-01T02:29:08.258Z,15.20
2022-10-01T02:31:36.329Z,15.13
2022-10-01T02:34:11.069Z,15.15
2022-10-01T02:36:42.560Z,15.20
2022-10-01T02:39:11.528Z,15.19
2022-10-01T02:41:39.060Z,15.14
2022-10-01T02:44:12.495Z,15.11
2022-10-01T02:47:08.552Z,15.07
2022-10-01T02:49:38.049Z,15.08
2022-10-01T02:52:23.448Z,15.11
2022-10-01T02:55:12.286Z,15.25
2022-10-01T02:57:39.881Z,15.26
2022-10-01T03:00:14.394Z,15.22
2022-10-01T03:02:42.034Z,15.20
2022-10-01T03:05:09.816Z,15.21
2022-10-01T03:07:37.981Z,15.23
2022-10-01T03:10:06.246Z,15.26
2022-10-01T03:12:34.628Z,15.27
2022-10-01T03:15:02.706Z,15.20
2022-10-01T03:17:30.218Z,15.17
2022-10-01T03:19:57.902Z,15.21
2022-10-01T03:22:25.604Z,15.26
2022-10-01T03:24:54.089Z,15.25
2022-10-01T03:27:21.919Z,15.26
2022-10-01T03:29:50.206Z,15.31
2022-10-01T03:32:18.006Z,15.29
2022-10-01T03:34:45.849Z,15.31
2022-10-01T03:37:13.271Z,15.35
2022-10-01T03:39:40.697Z,15.37
2022-10-01T03:42:08.412Z,15.43
2022-10-01T03:44:35.874Z,15.47
2022-10-01T03:47:03.352Z,15.47
2022-10-01T03:49:31.037Z,15.42
2022-10-01T03:51:59.261Z,15.31
2022-10-01T03:54:26.683Z,15.29
2022-10-01T03:56:54.400Z,15.26
2022-10-01T03:59:22.230Z,15.29
2022-10-01T04:01:49.761Z,15.28
2022-10-01T04:04:17.524Z,15.26
2022-10-01T04:06:44.939Z,15.21
2022-10-01T04:09:12.363Z,15.18
2022-10-01T04:11:40.067Z,15.17
2022-10-01T04:14:07.528Z,15.22
2022-10-01T04:16:36.202Z,15.24
2022-10-01T04:19:04.947Z,15.29
2022-10-01T04:21:32.679Z,15.29
2022-10-01T04:24:01.155Z,15.29
2022-10-01T04:26:28.831Z,15.25
2022-10-01T04:28:56.279Z,15.16
2022-10-01T04:31:26.830Z,15.23
2022-10-01T04:33:57.092Z,15.19
2022-10-01T04:36:25.476Z,15.12
2022-10-01T04:38:57.855Z,15.10
2022-10-01T04:41:26.162Z,15.12
2022-10-01T04:43:53.576Z,15.04
2022-10-01T04:46:21.180Z,15.07
2022-10-01T04:48:49.572Z,15.10
2022-10-01T04:51:17.632Z,15.14
2022-10-01T04:53:44.989Z,15.10
2022-10-01T04:56:12.707Z,15.15
2022-10-01T04:58:40.283Z,15.15
2022-10-01T05:01:07.777Z,15.19
2022-10-01T05:03:35.643Z,15.20
2022-10-01T05:06:03.038Z,15.21
2022-10-01T05:08:31.157Z,15.28
2022-10-01T05:11:00.415Z,15.32
2022-10-01T05:13:30.307Z,15.33
2022-10-01T05:15:59.011Z,15.40
2022-10-01T05:18:26.838Z,15.45
2022-10-01T05:20:54.194Z,15.48
2022-10-01T05:23:21.793Z,15.49
2022-10-01T05:25:49.653Z,15.50
2022-10-01T05:28:22.142Z,15.52
2022-10-01T05:30:51.297Z,15.57
2022-10-01T05:33:18.809Z,15.59
2022-10-01T05:35:46.217Z,15.63
2022-10-01T05:38:13.915Z,15.71
2022-10-01T05:40:46.234Z,15.69
2022-10-01T05:43:14.972Z,15.67
2022-10-01T05:45:43.141Z,15.60
2022-10-01T05:48:11.146Z,15.58
2022-10-01T05:50:40.415Z,15.60
2022-10-01T05:53:09.881Z,15.60
2022-10-01T05:55:37.566Z,15.59
2022-10-01T05:58:07.439Z,15.53
2022-10-01T06:00:35.948Z,15.50
2022-10-01T06:03:05.325Z,15.49
2022-10-01T06:05:35.010Z,15.53
2022-10-01T06:08:05.237Z,15.62
2022-10-01T06:10:33.180Z,15.62
2022-10-01T06:13:01.968Z,15.61
2022-10-01T06:15:29.778Z,15.57
2022-10-01T06:18:02.166Z,15.57
2022-10-01T06:20:29.588Z,15.58
2022-10-01T06:22:58.187Z,15.53
2022-10-01T06:25:29.085Z,15.40
2022-10-01T06:27:59.471Z,15.33
2022-10-01T06:30:29.221Z,15.39
2022-10-01T06:33:02.857Z,15.40
2022-10-01T06:35:34.487Z,15.51
2022-10-01T06:38:02.703Z,15.57
2022-10-01T06:40:31.188Z,15.66
2022-10-01T06:42:59.130Z,15.74
2022-10-01T06:45:28.302Z,15.79
2022-10-01T06:48:03.060Z,15.82
2022-10-01T06:50:32.211Z,15.88
2022-10-01T06:53:01.384Z,15.88
2022-10-01T06:55:31.801Z,15.91
2022-10-01T06:58:02.663Z,15.90
2022-10-01T07:00:32.675Z,15.94
2022-10-01T07:03:01.174Z,15.99
2022-10-01T07:05:28.610Z,15.98
2022-10-01T07:07:56.126Z,15.99
2022-10-01T07:10:24.408Z,16.04
2022-10-01T07:12:51.876Z,16.12
2022-10-01T07:15:22.827Z,16.22
2022-10-01T07:17:51.952Z,16.32
2022-10-01T07:20:20.908Z,16.41
2022-10-01T07:22:49.692Z,16.50
2022-10-01T07:25:17.627Z,16.63
2022-10-01T07:27:45.098Z,16.79
2022-10-01T07:30:12.542Z,17.23
2022-10-01T07:32:43.879Z,17.83
2022-10-01T07:35:11.405Z,18.15
2022-10-01T07:37:38.783Z,18.91
2022-10-01T07:40:07.724Z,19.60
2022-10-01T07:42:36.168Z,20.15
2022-10-01T07:45:06.616Z,20.64
2022-10-01T07:47:34.433Z,20.75
2022-10-01T07:50:02.405Z,20.54
2022-10-01T07:52:29.774Z,20.76
2022-10-01T07:54:58.179Z,21.22
2022-10-01T07:57:25.566Z,21.13
2022-10-01T07:59:55.841Z,21.28
2022-10-01T08:02:23.952Z,21.00
2022-10-01T08:05:10.344Z,21.25
2022-10-01T08:07:37.776Z,21.58
2022-10-01T08:10:05.932Z,21.74
2022-10-01T08:12:33.428Z,21.84
2022-10-01T08:15:02.285Z,21.69
2022-10-01T08:17:30.414Z,21.59
2022-10-01T08:19:57.780Z,21.54
2022-10-01T08:22:25.135Z,21.61
2022-10-01T08:24:52.866Z,21.60
2022-10-01T08:27:20.276Z,21.60
2022-10-01T08:29:48.244Z,21.71
2022-10-01T08:32:15.896Z,22.01
2022-10-01T08:34:43.296Z,21.90
2022-10-01T08:37:10.768Z,21.88
2022-10-01T08:39:38.541Z,22.20
2022-10-01T08:42:35.230Z,22.19
2022-10-01T08:45:13.749Z,21.94
2022-10-01T08:47:47.170Z,21.69
2022-10-01T08:50:17.607Z,21.44
2022-10-01T08:52:54.900Z,21.25
2022-10-01T08:55:26.355Z,21.18
2022-10-01T08:57:58.972Z,21.11
2022-10-01T09:00:29.411Z,21.00
2022-10-01T09:03:00.440Z,20.89
2022-10-01T09:05:52.950Z,20.85
2022-10-01T09:08:57.896Z,20.77
2022-10-01T09:11:34.711Z,20.71
2022-10-01T09:14:28.334Z,20.59
2022-10-01T09:17:21.832Z,20.51
2022-10-01T09:20:18.095Z,20.38
2022-10-01T09:22:52.825Z,20.22
2022-10-01T09:25:24.135Z,20.22
2022-10-01T09:28:00.882Z,20.15
2022-10-01T09:30:30.163Z,20.09
2022-10-01T09:33:30.138Z,20.10
2022-10-01T09:36:06.567Z,19.90
2022-10-01T09:38:46.153Z,19.54
2022-10-01T09:41:14.822Z,19.35
2022-10-01T09:43:43.993Z,19.18
2022-10-01T09:46:17.472Z,19.07
2022-10-01T09:49:02.330Z,19.03
2022-10-01T09:51:41.110Z,18.96
2022-10-01T09:54:15.297Z,18.89
2022-10-01T09:56:48.371Z,18.79
2022-10-01T09:59:29.872Z,18.73
2022-10-01T10:02:01.345Z,18.73
2022-10-01T10:04:29.319Z,18.78
2022-10-01T10:07:05.697Z,18.98
2022-10-01T10:09:35.964Z,19.37
2022-10-01T10:12:03.660Z,19.85
2022-10-01T10:14:37.389Z,20.20
2022-10-01T10:17:21.215Z,20.22
2022-10-01T10:19:51.913Z,20.00
2022-10-01T10:22:25.827Z,20.00
2022-10-01T10:24:58.938Z,19.87
2022-10-01T10:27:29.470Z,19.61
2022-10-01T10:30:14.886Z,19.55
2022-10-01T10:32:45.140Z,19.54
2022-10-01T10:35:19.126Z,19.43
2022-10-01T10:37:54.844Z,19.42
2022-10-01T10:40:32.129Z,19.39
2022-10-01T10:43:00.707Z,19.36
2022-10-01T10:45:38.781Z,19.44
2022-10-01T10:48:12.635Z,19.54
2022-10-01T10:50:43.619Z,19.69
2022-10-01T10:53:19.914Z,19.74
2022-10-01T10:56:01.932Z,19.73
2022-10-01T10:58:33.321Z,19.65
2022-10-01T11:01:06.292Z,19.63
2022-10-01T11:03:38.263Z,19.55
2022-10-01T11:06:14.904Z,19.49
2022-10-01T11:08:43.512Z,19.48
2022-10-01T11:11:38.300Z,19.51
2022-10-01T11:14:27.493Z,19.53
2022-10-01T11:17:00.667Z,19.54
2022-10-01T11:19:39.092Z,19.36
2022-10-01T11:22:13.387Z,19.35
2022-10-01T11:25:41.499Z,19.44
2022-10-01T11:28:41.057Z,19.43
2022-10-01T11:31:33.358Z,19.41
2022-10-01T11:34:28.351Z,19.43
2022-10-01T11:37:24.279Z,19.42
2022-10-01T11:39:55.835Z,19.37
2022-10-01T11:42:34.683Z,19.32
2022-10-01T11:45:17.900Z,19.34
2022-10-01T11:47:55.649Z,19.32
2022-10-01T11:50:39.327Z,19.31
2022-10-01T11:53:20.084Z,19.34
2022-10-01T11:56:19.807Z,19.34
2022-10-01T11:58:57.420Z,19.32
2022-10-01T12:01:27.969Z,19.28
2022-10-01T12:04:28.867Z,19.27
2022-10-01T12:06:58.852Z,19.25
2022-10-01T12:09:53.556Z,19.31
2022-10-01T12:12:39.124Z,19.35
2022-10-01T12:15:16.671Z,19.36
2022-10-01T12:17:53.102Z,19.41
2022-10-01T12:20:47.622Z,19.44
2022-10-01T12:23:20.740Z,19.45
2022-10-01T12:26:22.274Z,19.48
2022-10-01T12:29:02.353Z,19.51
2022-10-01T12:34:53.840Z,19.54
2022-10-01T12:37:41.911Z,19.56
2022-10-01T12:40:12.118Z,19.58
2022-10-01T12:43:04.871Z,19.58
2022-10-01T12:46:04.397Z,19.61
2022-10-01T12:48:38.263Z,19.66
2022-10-01T12:51:22.478Z,19.75
2022-10-01T12:54:13.338Z,19.88
2022-10-01T12:56:48.767Z,20.12
2022-10-01T12:59:31.372Z,20.59
2022-10-01T13:02:04.924Z,21.10
2022-10-01T13:04:51.147Z,21.43
2022-10-01T13:07:27.352Z,21.80
2022-10-01T13:10:15.904Z,21.95
2022-10-01T13:12:43.239Z,22.08
2022-10-01T13:15:22.352Z,22.31
2022-10-01T13:18:20.081Z,22.34
2022-10-01T13:21:23.168Z,22.47
2022-10-01T13:24:05.055Z,22.58
2022-10-01T13:26:47.063Z,22.77
2022-10-01T13:29:54.808Z,22.83
2022-10-01T13:32:28.533Z,22.68
2022-10-01T13:34:57.955Z,22.72
2022-10-01T13:37:35.243Z,22.82
2022-10-01T13:40:05.267Z,22.93
2022-10-01T13:43:02.188Z,22.99
2022-10-01T13:45:37.182Z,23.03
2022-10-01T13:48:21.079Z,23.00
2022-10-01T13:51:03.836Z,23.03
2022-10-01T13:53:36.168Z,23.08
2022-10-01T13:56:05.145Z,23.13
2022-10-01T13:58:40.283Z,23.18
2022-10-01T14:01:29.356Z,23.16
2022-10-01T14:04:20.127Z,23.14
2022-10-01T14:07:19.372Z,23.17
2022-10-01T14:09:52.022Z,23.03
2022-10-01T14:12:53.002Z,22.63
2022-10-01T14:15:46.404Z,22.73
2022-10-01T14:18:20.960Z,22.81
2022-10-01T14:20:54.328Z,22.83
2022-10-01T14:23:33.741Z,22.83
2022-10-01T14:26:15.687Z,22.86
2022-10-01T14:28:58.323Z,22.95
2022-10-01T14:31:47.460Z,22.86
2022-10-01T14:34:28.345Z,22.82
2022-10-01T14:36:56.356Z,22.85
2022-10-01T14:39:29.473Z,22.85
2022-10-01T14:41:58.088Z,22.82
2022-10-01T14:44:31.958Z,22.77
2022-10-01T14:47:00.667Z,22.65
2022-10-01T14:49:30.548Z,22.58
2022-10-01T14:52:04.306Z,22.37
2022-10-01T14:54:45.090Z,22.01
2022-10-01T14:57:22.736Z,21.80
2022-10-01T14:59:50.716Z,21.66
2022-10-01T15:02:20.790Z,21.57
2022-10-01T15:04:52.721Z,21.48
2022-10-01T15:07:20.890Z,21.32
2022-10-01T15:09:49.486Z,21.24
2022-10-01T15:12:20.156Z,21.16
2022-10-01T15:14:53.625Z,21.03
2022-10-01T15:17:26.901Z,20.94
2022-10-01T15:19:56.700Z,20.85
2022-10-01T15:22:29.672Z,20.64
2022-10-01T15:25:00.963Z,20.43
2022-10-01T15:27:28.986Z,20.34
2022-10-01T15:29:58.884Z,20.17
2022-10-01T15:32:28.307Z,20.06
2022-10-01T15:34:59.869Z,19.98
2022-10-01T15:37:32.582Z,19.92
2022-10-01T15:40:01.116Z,19.85
2022-10-01T15:42:32.857Z,19.79
2022-10-01T15:45:09.804Z,19.70
2022-10-01T15:47:51.663Z,19.64
2022-10-01T15:50:21.953Z,19.51
2022-10-01T15:53:17.885Z,19.43
2022-10-01T15:55:58.166Z,19.40
2022-10-01T15:58:35.198Z,19.32
2022-10-01T16:01:04.936Z,19.23
2022-10-01T16:03:40.038Z,19.15
2022-10-01T16:06:23.700Z,19.07
2022-10-01T16:09:06.713Z,19.04
2022-10-01T16:12:18.322Z,18.95
2022-10-01T16:15:00.592Z,18.90
2022-10-01T16:17:30.692Z,18.81
2022-10-01T16:20:34.181Z,18.77
2022-10-01T16:23:39.435Z,18.72
2022-10-01T16:26:29.997Z,18.63
2022-10-01T16:29:02.320Z,18.54
2022-10-01T16:31:31.165Z,18.47
2022-10-01T16:33:58.644Z,18.39
2022-10-01T16:36:26.431Z,18.38
2022-10-01T16:38:54.216Z,18.31
2022-10-01T16:41:26.160Z,18.28
2022-10-01T16:43:57.239Z,18.31
2022-10-01T16:46:24.766Z,18.23
2022-10-01T16:48:52.306Z,18.16
2022-10-01T16:51:21.917Z,18.11
2022-10-01T16:53:50.178Z,18.12
2022-10-01T16:56:17.625Z,18.06
2022-10-01T16:58:45.812Z,18.04
2022-10-01T17:01:16.057Z,18.03
2022-10-01T17:03:43.475Z,18.05
2022-10-01T17:06:11.175Z,18.03
2022-10-01T17:08:38.525Z,18.04
2022-10-01T17:11:09.500Z,17.99
2022-10-01T17:13:39.735Z,17.97
2022-10-01T17:16:07.293Z,17.94
2022-10-01T17:18:34.706Z,18.01
2022-10-01T17:21:04.351Z,18.00
2022-10-01T17:23:31.784Z,18.00
2022-10-01T17:25:59.216Z,18.00
2022-10-01T17:28:27.054Z,18.02
2022-10-01T17:30:54.502Z,17.99
2022-10-01T17:33:22.510Z,17.96
2022-10-01T17:35:55.648Z,17.96
2022-10-01T17:38:23.253Z,17.91
2022-10-01T17:40:56.526Z,17.86
2022-10-01T17:43:24.487Z,17.87
2022-10-01T17:45:57.588Z,17.86
2022-10-01T17:48:26.543Z,17.81
2022-10-01T17:51:06.442Z,17.77
2022-10-01T17:53:41.355Z,17.79
2022-10-01T17:56:14.619Z,17.81
2022-10-01T17:58:45.276Z,17.79
2022-10-01T18:01:19.630Z,17.82
2022-10-01T18:03:48.024Z,17.83
2022-10-01T18:06:16.264Z,17.81
2022-10-01T18:08:55.027Z,17.73
2022-10-01T18:11:25.916Z,17.72
2022-10-01T18:13:53.422Z,17.69
2022-10-01T18:16:21.789Z,17.72
2022-10-01T18:21:46.363Z,17.74
2022-10-01T18:24:15.787Z,17.71
2022-10-01T18:26:45.650Z,17.74
2022-10-01T18:29:27.303Z,17.75
2022-10-01T18:32:01.748Z,17.70
2022-10-01T18:34:39.776Z,17.72
2022-10-01T18:37:22.563Z,17.68
2022-10-01T18:40:15.557Z,17.65
2022-10-01T18:42:46.558Z,17.63
2022-10-01T18:45:17.865Z,17.58
2022-10-01T18:48:11.499Z,17.55
2022-10-01T18:51:02.619Z,17.55
2022-10-01T18:53:30.258Z,17.55
2022-10-01T18:56:00.785Z,17.53
2022-10-01T18:58:46.801Z,17.52
2022-10-01T19:01:26.413Z,17.46
2022-10-01T19:04:07.520Z,17.43
2022-10-01T19:06:46.385Z,17.37
2022-10-01T19:09:37.939Z,17.35
2022-10-01T19:12:30.175Z,17.34
2022-10-01T19:14:57.533Z,17.34
2022-10-01T19:17:37.452Z,17.35
2022-10-01T19:20:14.042Z,17.34
2022-10-01T19:22:56.849Z,17.33
2022-10-01T19:25:36.843Z,17.32
2022-10-01T19:28:25.040Z,17.27
2022-10-01T19:31:08.994Z,17.32
2022-10-01T19:33:44.882Z,17.27
2022-10-01T19:36:23.309Z,17.19
2022-10-01T19:38:53.968Z,17.20
2022-10-01T19:41:40.396Z,17.13
2022-10-01T19:44:24.397Z,17.09
2022-10-01T19:46:56.430Z,17.14
2022-10-01T19:49:42.464Z,17.14
2022-10-01T19:52:18.248Z,17.14
2022-10-01T19:54:52.635Z,17.10
2022-10-01T19:57:25.946Z,17.11
2022-10-01T19:59:59.571Z,17.10
2022-10-01T20:02:47.080Z,17.13
2022-10-01T20:05:28.280Z,17.12
2022-10-01T20:08:28.619Z,17.06
2022-10-01T20:11:27.617Z,17.08
2022-10-01T20:14:06.211Z,17.07
2022-10-01T20:16:43.914Z,16.93
2022-10-01T20:19:24.853Z,16.92
2022-10-01T20:22:04.973Z,16.90
2022-10-01T20:24:41.867Z,16.80
2022-10-01T20:27:31.492Z,16.72
2022-10-01T20:30:05.004Z,16.60
2022-10-01T20:33:15.631Z,16.48
2022-10-01T20:36:22.353Z,16.35
2022-10-01T20:38:59.561Z,16.28
2022-10-01T20:41:30.081Z,16.23
2022-10-01T20:44:00.242Z,16.19
2022-10-01T20:46:44.394Z,16.11
2022-10-01T20:49:24.652Z,16.06
2022-10-01T20:52:24.356Z,16.02
2022-10-01T20:54:58.017Z,16.02
2022-10-01T20:57:34.580Z,15.92
2022-10-01T21:00:21.356Z,15.92
2022-10-01T21:03:18.193Z,15.89
2022-10-01T21:05:54.325Z,15.87
2022-10-01T21:08:53.775Z,15.86
2022-10-01T21:11:30.562Z,15.80
2022-10-01T21:13:58.066Z,15.79
2022-10-01T21:16:44.469Z,15.77
2022-10-01T21:19:33.678Z,15.74
2022-10-01T21:22:24.978Z,15.65
2022-10-01T21:25:10.232Z,15.64
2022-10-01T21:27:49.906Z,15.56
2022-10-01T21:30:20.007Z,15.59
2022-10-01T21:33:02.347Z,15.53
2022-10-01T21:35:54.099Z,15.55
2022-10-01T21:38:45.342Z,15.51
2022-10-01T21:41:25.220Z,15.52
2022-10-01T21:44:02.119Z,15.44
2022-10-01T21:46:44.728Z,15.42
2022-10-01T21:49:18.568Z,15.35
2022-10-01T21:52:04.177Z,15.33
2022-10-01T21:54:34.926Z,15.35
2022-10-01T21:57:26.955Z,15.26
2022-10-01T22:00:15.565Z,15.19
2022-10-01T22:03:05.569Z,15.11
2022-10-01T22:05:40.703Z,15.07
2022-10-01T22:08:45.992Z,15.11
2022-10-01T22:11:23.439Z,15.07
2022-10-01T22:13:54.987Z,14.92
2022-10-01T22:16:26.276Z,14.79
2022-10-01T22:19:04.124Z,14.79
2022-10-01T22:21:37.415Z,14.72
2022-10-01T22:24:10.813Z,14.73
2022-10-01T22:26:45.624Z,14.61
2022-10-01T22:29:21.935Z,14.54
2022-10-01T22:31:54.688Z,14.53
2022-10-01T22:34:26.044Z,14.48
2022-10-01T22:36:58.546Z,14.43
2022-10-01T22:39:30.846Z,14.36
2022-10-01T22:42:06.316Z,14.43
2022-10-01T22:44:36.956Z,14.39
2022-10-01T22:47:16.500Z,14.31
2022-10-01T22:50:06.162Z,14.29
2022-10-01T22:52:52.209Z,14.16
2022-10-01T22:55:31.413Z,14.09
2022-10-01T22:58:10.828Z,14.09
2022-10-01T23:01:03.665Z,14.03
2022-10-01T23:03:43.156Z,14.04
2022-10-01T23:06:29.479Z,14.03
2022-10-01T23:09:05.972Z,14.06
2022-10-01T23:11:50.208Z,14.06
2022-10-01T23:14:45.133Z,14.01
2022-10-01T23:17:20.228Z,14.01
2022-10-01T23:20:12.407Z,13.95
2022-10-01T23:23:01.985Z,13.90
2022-10-01T23:25:38.088Z,13.94
2022-10-01T23:28:14.812Z,14.00
2022-10-01T23:31:13.081Z,13.89
2022-10-01T23:34:08.974Z,13.81
2022-10-01T23:36:47.352Z,13.80
2022-10-01T23:39:41.162Z,13.82
2022-10-01T23:42:28.348Z,13.78
2022-10-01T23:45:04.989Z,13.69
2022-10-01T23:47:52.720Z,13.68
2022-10-01T23:50:50.044Z,13.68
2022-10-01T23:53:23.912Z,13.55
2022-10-01T23:56:24.826Z,13.50
2022-10-01T23:59:02.295Z,13.56
